createdAt,value
2019-03-15T00:00:16.512Z,81.30
2019-03-15T00:01:16.505Z,81.51
2019-03-15T00:02:16.490Z,81.40
2019-03-15T00:03:16.478Z,81.51
2019-03-15T00:04:16.473Z,81.40
2019-03-15T00:05:16.491Z,81.30
2019-03-15T00:06:16.447Z,81.61
2019-03-15T00:07:16.443Z,81.30
2019-03-15T00:08:16.420Z,81.51
2019-03-15T00:09:16.413Z,81.51
2019-03-15T00:10:16.430Z,81.30
2019-03-15T00:11:16.398Z,81.51
2019-03-15T00:12:16.378Z,81.09
2019-03-15T00:14:17.489Z,81.51
2019-03-15T00:15:16.536Z,81.81
2019-03-15T00:16:16.467Z,81.30
2019-03-15T00:17:16.457Z,81.61
2019-03-15T00:18:16.433Z,81.61
2019-03-15T00:19:16.442Z,81.30
2019-03-15T00:20:16.309Z,81.61
2019-03-15T00:21:16.274Z,81.51
2019-03-15T00:22:16.277Z,81.40
2019-03-15T00:23:16.248Z,81.51
2019-03-15T00:24:16.270Z,81.40
2019-03-15T00:25:16.249Z,81.44
2019-03-15T00:26:16.224Z,81.51
2019-03-15T00:27:16.207Z,81.51
2019-03-15T00:28:16.219Z,80.68
2019-03-15T00:29:16.227Z,81.54
2019-03-15T00:30:16.212Z,80.68
2019-03-15T00:31:16.181Z,80.27
2019-03-15T00:32:16.153Z,80.79
2019-03-15T00:33:16.140Z,80.47
2019-03-15T00:34:16.626Z,80.27
2019-03-15T00:36:17.275Z,79.75
2019-03-15T00:37:16.115Z,80.27
2019-03-15T00:38:16.079Z,80.06
2019-03-15T00:39:16.073Z,80.27
2019-03-15T00:40:16.762Z,80.16
2019-03-15T00:41:16.072Z,80.27
2019-03-15T00:42:16.032Z,80.16
2019-03-15T00:43:16.034Z,80.27
2019-03-15T00:44:16.163Z,80.27
2019-03-15T00:45:16.006Z,80.16
2019-03-15T00:46:16.014Z,80.16
2019-03-15T00:47:16.102Z,79.75
2019-03-15T00:48:16.005Z,79.86
2019-03-15T00:49:15.955Z,79.65
2019-03-15T00:50:15.947Z,80.16
2019-03-15T00:51:15.960Z,79.65
2019-03-15T00:52:15.934Z,79.75
2019-03-15T00:53:15.942Z,79.65
2019-03-15T00:54:15.897Z,79.24
2019-03-15T00:55:15.888Z,79.75
2019-03-15T00:56:15.911Z,79.86
2019-03-15T00:57:15.879Z,79.75
2019-03-15T00:58:15.881Z,79.44
2019-03-15T00:59:15.849Z,79.44
2019-03-15T01:00:15.830Z,79.75
2019-03-15T01:01:15.818Z,79.96
2019-03-15T01:02:15.810Z,79.55
2019-03-15T01:03:15.840Z,79.75
2019-03-15T01:04:15.795Z,79.86
2019-03-15T01:05:15.782Z,79.86
2019-03-15T01:06:15.765Z,79.86
2019-03-15T01:07:15.757Z,80.00
2019-03-15T01:08:15.739Z,79.86
2019-03-15T01:09:15.754Z,79.96
2019-03-15T01:10:15.725Z,79.55
2019-03-15T01:11:15.705Z,79.86
2019-03-15T01:12:15.698Z,79.75
2019-03-15T01:13:15.712Z,79.96
2019-03-15T01:14:15.674Z,80.06
2019-03-15T01:15:15.660Z,79.75
2019-03-15T01:16:15.666Z,79.55
2019-03-15T01:17:15.666Z,79.14
2019-03-15T01:18:15.627Z,79.75
2019-03-15T01:19:15.624Z,79.75
2019-03-15T01:20:15.605Z,80.16
2019-03-15T01:21:15.614Z,79.65
2019-03-15T01:22:15.592Z,79.24
2019-03-15T01:23:15.600Z,79.96
2019-03-15T01:24:15.558Z,79.44
2019-03-15T01:25:15.556Z,80.06
2019-03-15T01:26:15.565Z,79.44
2019-03-15T01:27:15.525Z,79.75
2019-03-15T01:28:15.555Z,79.55
2019-03-15T01:29:15.514Z,79.55
2019-03-15T01:30:15.494Z,79.14
2019-03-15T01:31:15.486Z,78.83
2019-03-15T01:32:15.467Z,79.03
2019-03-15T01:33:15.478Z,78.83
2019-03-15T01:34:15.449Z,78.83
2019-03-15T01:35:15.457Z,78.41
2019-03-15T01:36:15.447Z,78.41
2019-03-15T01:37:15.422Z,78.62
2019-03-15T01:38:15.403Z,78.83
2019-03-15T01:39:15.419Z,78.48
2019-03-15T01:40:15.377Z,78.62
2019-03-15T01:41:15.366Z,78.83
2019-03-15T01:42:15.353Z,78.62
2019-03-15T01:43:15.366Z,78.31
2019-03-15T01:44:15.330Z,78.62
2019-03-15T01:45:15.322Z,78.62
2019-03-15T01:46:15.316Z,79.03
2019-03-15T01:47:15.295Z,79.03
2019-03-15T01:48:15.411Z,78.83
2019-03-15T01:49:15.274Z,78.52
2019-03-15T01:50:15.272Z,78.62
2019-03-15T01:51:15.493Z,78.62
2019-03-15T01:52:15.239Z,78.62
2019-03-15T01:53:15.272Z,78.52
2019-03-15T01:54:15.216Z,78.21
2019-03-15T01:55:15.226Z,78.21
2019-03-15T01:56:15.193Z,78.41
2019-03-15T01:57:15.208Z,78.41
2019-03-15T01:58:15.174Z,78.52
2019-03-15T01:59:15.191Z,78.41
2019-03-15T02:00:15.147Z,78.31
2019-03-15T02:01:15.142Z,78.52
2019-03-15T02:02:15.126Z,78.52
2019-03-15T02:03:15.139Z,78.41
2019-03-15T02:04:15.234Z,78.21
2019-03-15T02:05:15.090Z,78.11
2019-03-15T02:06:15.086Z,78.52
2019-03-15T02:07:15.066Z,78.93
2019-03-15T02:08:15.057Z,78.21
2019-03-15T02:09:15.083Z,78.83
2019-03-15T02:10:15.042Z,78.52
2019-03-15T02:11:15.026Z,78.52
2019-03-15T02:12:15.031Z,78.41
2019-03-15T02:13:15.009Z,77.48
2019-03-15T02:14:15.054Z,77.38
2019-03-15T02:15:14.976Z,77.97
2019-03-15T02:16:14.964Z,77.90
2019-03-15T02:17:14.952Z,77.90
2019-03-15T02:18:14.970Z,77.97
2019-03-15T02:19:14.973Z,78.00
2019-03-15T02:20:14.917Z,77.66
2019-03-15T02:21:14.917Z,77.76
2019-03-15T02:22:14.894Z,78.00
2019-03-15T02:23:14.887Z,77.80
2019-03-15T02:24:14.903Z,77.80
2019-03-15T02:25:14.866Z,77.69
2019-03-15T02:26:14.850Z,78.00
2019-03-15T02:27:14.837Z,77.97
2019-03-15T02:28:14.829Z,78.11
2019-03-15T02:29:14.837Z,78.00
2019-03-15T02:30:14.834Z,77.59
2019-03-15T02:31:14.802Z,78.11
2019-03-15T02:32:15.069Z,78.00
2019-03-15T02:33:14.778Z,78.00
2019-03-15T02:34:14.790Z,78.11
2019-03-15T02:35:14.774Z,77.59
2019-03-15T02:36:14.738Z,77.59
2019-03-15T02:37:14.734Z,78.11
2019-03-15T02:38:14.724Z,77.90
2019-03-15T02:39:14.761Z,78.11
2019-03-15T02:40:14.692Z,78.72
2019-03-15T02:41:14.683Z,78.00
2019-03-15T02:42:14.670Z,77.59
2019-03-15T02:43:14.659Z,79.03
2019-03-15T02:44:14.672Z,78.52
2019-03-15T02:45:14.655Z,78.31
2019-03-15T02:46:14.631Z,77.69
2019-03-15T02:47:14.612Z,78.52
2019-03-15T02:48:14.623Z,77.38
2019-03-15T02:49:14.651Z,78.83
2019-03-15T02:50:14.603Z,77.59
2019-03-15T02:51:14.566Z,78.72
2019-03-15T02:52:15.795Z,77.80
2019-03-15T02:53:14.542Z,78.89
2019-03-15T02:54:14.536Z,78.28
2019-03-15T02:55:14.555Z,78.41
2019-03-15T02:56:14.990Z,78.41
2019-03-15T02:57:14.499Z,78.62
2019-03-15T02:58:14.488Z,78.41
2019-03-15T02:59:14.478Z,78.41
2019-03-15T03:00:14.503Z,78.41
2019-03-15T03:01:14.472Z,78.31
2019-03-15T03:02:14.439Z,78.11
2019-03-15T03:03:14.439Z,78.41
2019-03-15T03:04:14.487Z,78.11
2019-03-15T03:05:14.438Z,78.11
2019-03-15T03:06:14.423Z,78.45
2019-03-15T03:07:14.383Z,78.41
2019-03-15T03:08:14.623Z,78.52
2019-03-15T03:09:14.363Z,78.52
2019-03-15T03:10:14.375Z,78.62
2019-03-15T03:11:14.377Z,79.24
2019-03-15T03:12:14.328Z,78.41
2019-03-15T03:13:14.322Z,78.31
2019-03-15T03:14:14.302Z,78.11
2019-03-15T03:15:14.298Z,78.31
2019-03-15T03:16:14.325Z,78.41
2019-03-15T03:17:14.271Z,78.11
2019-03-15T03:18:14.268Z,78.31
2019-03-15T03:19:14.246Z,78.21
2019-03-15T03:20:14.239Z,78.21
2019-03-15T03:21:15.178Z,78.52
2019-03-15T03:22:14.215Z,78.41
2019-03-15T03:23:14.205Z,78.52
2019-03-15T03:24:14.194Z,78.31
2019-03-15T03:25:14.182Z,78.41
2019-03-15T03:26:14.197Z,78.21
2019-03-15T03:27:14.166Z,78.41
2019-03-15T03:28:14.158Z,78.21
2019-03-15T03:29:14.143Z,78.21
2019-03-15T03:30:16.471Z,78.11
2019-03-15T03:31:15.776Z,78.41
2019-03-15T03:32:14.514Z,78.31
2019-03-15T03:33:14.328Z,78.11
2019-03-15T03:34:14.075Z,78.00
2019-03-15T03:35:14.076Z,78.52
2019-03-15T03:36:14.061Z,78.41
2019-03-15T03:37:14.064Z,78.52
2019-03-15T03:38:14.327Z,78.52
2019-03-15T03:39:14.016Z,78.48
2019-03-15T03:40:14.009Z,78.11
2019-03-15T03:41:13.993Z,78.11
2019-03-15T03:42:13.986Z,78.52
2019-03-15T03:43:13.993Z,78.52
2019-03-15T03:44:13.959Z,78.72
2019-03-15T03:45:13.947Z,78.58
2019-03-15T03:46:13.939Z,78.21
2019-03-15T03:47:13.959Z,78.48
2019-03-15T03:48:15.716Z,78.11
2019-03-15T03:49:13.944Z,78.21
2019-03-15T03:50:13.892Z,78.72
2019-03-15T03:51:13.885Z,78.11
2019-03-15T03:52:13.896Z,78.31
2019-03-15T03:53:13.870Z,78.21
2019-03-15T03:54:13.974Z,78.11
2019-03-15T03:55:13.847Z,78.38
2019-03-15T03:56:13.823Z,78.31
2019-03-15T03:57:13.839Z,78.21
2019-03-15T03:58:13.797Z,78.52
2019-03-15T03:59:13.906Z,78.17
2019-03-15T04:00:13.782Z,78.52
2019-03-15T04:01:13.763Z,78.38
2019-03-15T04:02:13.753Z,78.31
2019-03-15T04:03:13.769Z,78.17
2019-03-15T04:04:13.747Z,78.31
2019-03-15T04:05:13.724Z,78.52
2019-03-15T04:06:13.721Z,78.83
2019-03-15T04:07:13.699Z,78.69
2019-03-15T04:08:13.744Z,78.21
2019-03-15T04:09:13.674Z,78.79
2019-03-15T04:10:13.674Z,78.11
2019-03-15T04:11:13.663Z,78.52
2019-03-15T04:12:13.650Z,78.48
2019-03-15T04:13:13.658Z,78.38
2019-03-15T04:14:13.646Z,78.58
2019-03-15T04:15:13.613Z,78.83
2019-03-15T04:16:13.906Z,78.72
2019-03-15T04:17:13.603Z,78.31
2019-03-15T04:18:13.612Z,77.97
2019-03-15T04:19:13.573Z,77.45
2019-03-15T04:20:13.550Z,78.93
2019-03-15T04:21:13.543Z,78.83
2019-03-15T04:22:13.532Z,78.93
2019-03-15T04:23:13.573Z,78.41
2019-03-15T04:24:13.515Z,77.66
2019-03-15T04:25:13.496Z,78.52
2019-03-15T04:26:13.486Z,77.69
2019-03-15T04:27:13.486Z,78.72
2019-03-15T04:28:13.501Z,78.00
2019-03-15T04:29:13.479Z,77.80
2019-03-15T04:30:13.445Z,78.31
2019-03-15T04:31:13.431Z,77.48
2019-03-15T04:32:13.418Z,78.11
2019-03-15T04:33:13.406Z,78.52
2019-03-15T04:34:13.420Z,78.52
2019-03-15T04:35:13.386Z,78.31
2019-03-15T04:36:13.371Z,77.59
2019-03-15T04:37:13.363Z,78.11
2019-03-15T04:38:13.350Z,78.07
2019-03-15T04:39:14.116Z,77.66
2019-03-15T04:40:13.331Z,77.76
2019-03-15T04:41:13.317Z,78.00
2019-03-15T04:42:13.311Z,77.76
2019-03-15T04:43:13.293Z,77.66
2019-03-15T04:44:13.304Z,77.80
2019-03-15T04:45:13.273Z,77.80
2019-03-15T04:46:13.258Z,77.69
2019-03-15T04:47:13.247Z,77.80
2019-03-15T04:48:13.242Z,77.76
2019-03-15T04:49:13.251Z,77.45
2019-03-15T04:50:13.210Z,78.79
2019-03-15T04:51:13.223Z,77.76
2019-03-15T04:52:13.190Z,78.69
2019-03-15T04:53:13.183Z,78.52
2019-03-15T04:54:13.191Z,77.97
2019-03-15T04:55:13.158Z,77.80
2019-03-15T04:56:13.143Z,78.69
2019-03-15T04:57:13.140Z,77.48
2019-03-15T04:58:13.139Z,77.76
2019-03-15T04:59:13.136Z,78.00
2019-03-15T05:00:13.101Z,77.97
2019-03-15T05:01:13.084Z,77.86
2019-03-15T05:02:13.077Z,77.66
2019-03-15T05:03:13.067Z,77.90
2019-03-15T05:04:13.084Z,77.86
2019-03-15T05:05:13.070Z,77.48
2019-03-15T05:06:13.032Z,78.17
2019-03-15T05:07:13.017Z,77.86
2019-03-15T05:08:13.027Z,78.07
2019-03-15T05:09:12.997Z,77.76
2019-03-15T05:10:13.008Z,77.86
2019-03-15T05:11:12.970Z,78.07
2019-03-15T05:12:12.966Z,78.28
2019-03-15T05:13:12.950Z,77.86
2019-03-15T05:14:13.019Z,77.62
2019-03-15T05:15:13.076Z,77.55
2019-03-15T05:16:12.914Z,78.00
2019-03-15T05:17:12.907Z,78.38
2019-03-15T05:18:12.895Z,77.55
2019-03-15T05:19:12.883Z,77.45
2019-03-15T05:20:12.894Z,79.00
2019-03-15T05:21:12.861Z,77.35
2019-03-15T05:22:12.848Z,78.28
2019-03-15T05:23:12.832Z,78.48
2019-03-15T05:24:12.822Z,78.38
2019-03-15T05:25:12.841Z,78.28
2019-03-15T05:26:12.807Z,78.28
2019-03-15T05:27:12.789Z,78.14
2019-03-15T05:28:12.781Z,78.17
2019-03-15T05:29:12.764Z,78.38
2019-03-15T05:30:12.785Z,78.79
2019-03-15T05:31:12.755Z,78.58
2019-03-15T05:32:12.740Z,79.10
2019-03-15T05:33:12.725Z,78.79
2019-03-15T05:34:12.708Z,78.48
2019-03-15T05:35:12.731Z,79.10
2019-03-15T05:36:12.721Z,78.89
2019-03-15T05:37:12.684Z,79.00
2019-03-15T05:38:12.663Z,79.30
2019-03-15T05:39:12.663Z,79.20
2019-03-15T05:40:12.643Z,79.20
2019-03-15T05:41:12.654Z,78.89
2019-03-15T05:42:12.620Z,79.10
2019-03-15T05:43:12.615Z,78.79
2019-03-15T05:44:12.596Z,78.96
2019-03-15T05:45:12.585Z,79.82
2019-03-15T05:46:12.607Z,79.06
2019-03-15T05:47:12.563Z,78.96
2019-03-15T05:48:12.554Z,79.93
2019-03-15T05:49:12.542Z,79.37
2019-03-15T05:50:12.531Z,80.02
2019-03-15T05:51:12.521Z,79.82
2019-03-15T05:52:12.533Z,79.93
2019-03-15T05:53:12.496Z,79.58
2019-03-15T05:54:12.500Z,79.82
2019-03-15T05:55:12.475Z,79.51
2019-03-15T05:56:12.465Z,79.82
2019-03-15T05:57:12.483Z,79.61
2019-03-15T05:58:12.442Z,80.33
2019-03-15T05:59:12.523Z,80.13
2019-03-15T06:00:12.431Z,79.86
2019-03-15T06:01:12.408Z,80.27
2019-03-15T06:02:12.429Z,80.65
2019-03-15T06:03:12.793Z,80.65
2019-03-15T06:04:12.376Z,80.65
2019-03-15T06:05:12.366Z,81.26
2019-03-15T06:06:12.364Z,80.23
2019-03-15T06:07:12.372Z,80.65
2019-03-15T06:08:12.340Z,80.75
2019-03-15T06:09:12.340Z,80.23
2019-03-15T06:10:12.315Z,80.44
2019-03-15T06:11:12.297Z,81.05
2019-03-15T06:12:12.321Z,80.27
2019-03-15T06:13:12.279Z,80.54
2019-03-15T06:14:12.268Z,81.57
2019-03-15T06:15:12.253Z,80.54
2019-03-15T06:16:12.298Z,81.57
2019-03-15T06:17:12.253Z,81.47
2019-03-15T06:18:12.247Z,81.02
2019-03-15T06:19:12.205Z,80.65
2019-03-15T06:20:12.211Z,80.65
2019-03-15T06:21:12.185Z,80.65
2019-03-15T06:22:12.174Z,80.44
2019-03-15T06:23:12.191Z,80.54
2019-03-15T06:24:12.162Z,80.54
2019-03-15T06:25:12.183Z,80.13
2019-03-15T06:26:12.131Z,80.23
2019-03-15T06:27:12.122Z,80.33
2019-03-15T06:28:12.137Z,79.72
2019-03-15T06:29:12.098Z,80.09
2019-03-15T06:30:12.083Z,80.54
2019-03-15T06:31:12.087Z,79.82
2019-03-15T06:32:12.085Z,81.26
2019-03-15T06:33:12.093Z,81.37
2019-03-15T06:34:12.049Z,81.51
2019-03-15T06:35:12.031Z,81.47
2019-03-15T06:36:12.015Z,81.57
2019-03-15T06:37:12.008Z,81.57
2019-03-15T06:38:12.019Z,81.37
2019-03-15T06:39:11.981Z,81.63
2019-03-15T06:40:13.528Z,81.67
2019-03-15T06:41:14.357Z,81.57
2019-03-15T06:42:11.949Z,80.71
2019-03-15T06:43:13.372Z,80.71
2019-03-15T06:44:11.928Z,80.65
2019-03-15T06:45:11.915Z,81.47
2019-03-15T06:46:11.913Z,81.26
2019-03-15T06:47:11.890Z,80.54
2019-03-15T06:48:11.904Z,80.51
2019-03-15T06:49:11.878Z,80.75
2019-03-15T06:50:11.859Z,81.37
2019-03-15T06:51:11.858Z,80.71
2019-03-15T06:52:11.840Z,81.26
2019-03-15T06:53:11.850Z,81.37
2019-03-15T06:54:12.097Z,81.43
2019-03-15T06:55:11.815Z,81.57
2019-03-15T06:56:11.792Z,81.67
2019-03-15T06:57:11.776Z,81.43
2019-03-15T06:58:11.765Z,81.43
2019-03-15T06:59:11.776Z,81.43
2019-03-15T07:00:11.746Z,81.12
2019-03-15T07:01:11.734Z,81.26
2019-03-15T07:02:11.727Z,81.26
2019-03-15T07:03:11.777Z,81.26
2019-03-15T07:04:11.728Z,81.12
2019-03-15T07:05:12.516Z,81.43
2019-03-15T07:06:11.674Z,81.37
2019-03-15T07:07:11.668Z,81.43
2019-03-15T07:08:11.752Z,81.43
2019-03-15T07:09:11.668Z,81.74
2019-03-15T07:10:11.631Z,81.47
2019-03-15T07:11:11.620Z,82.05
2019-03-15T07:12:11.759Z,81.74
2019-03-15T07:13:11.595Z,81.84
2019-03-15T07:14:11.620Z,82.05
2019-03-15T07:15:11.581Z,81.95
2019-03-15T07:16:11.574Z,81.95
2019-03-15T07:17:11.555Z,81.63
2019-03-15T07:18:11.543Z,81.95
2019-03-15T07:19:11.592Z,81.95
2019-03-15T07:20:11.522Z,81.95
2019-03-15T07:21:11.511Z,82.15
2019-03-15T07:23:12.636Z,81.84
2019-03-15T07:24:24.112Z,81.84
2019-03-15T07:25:12.569Z,81.77
2019-03-15T07:26:11.458Z,82.25
2019-03-15T07:27:13.284Z,82.15
2019-03-15T07:28:11.453Z,82.46
2019-03-15T07:29:11.429Z,82.05
2019-03-15T07:30:11.446Z,82.56
2019-03-15T07:31:11.400Z,82.15
2019-03-15T07:32:11.388Z,82.56
2019-03-15T07:33:11.374Z,82.35
2019-03-15T07:34:13.931Z,82.56
2019-03-15T07:35:11.382Z,82.56
2019-03-15T07:36:11.353Z,83.07
2019-03-15T07:37:11.329Z,83.39
2019-03-15T07:38:11.337Z,83.07
2019-03-15T07:39:12.730Z,83.90
2019-03-15T07:40:11.343Z,83.59
2019-03-15T07:41:12.095Z,83.49
2019-03-15T07:42:11.274Z,83.80
2019-03-15T07:43:11.267Z,83.90
2019-03-15T07:44:11.250Z,83.80
2019-03-15T07:45:11.276Z,83.59
2019-03-15T07:46:11.266Z,83.90
2019-03-15T07:47:11.230Z,84.11
2019-03-15T07:48:21.941Z,83.90
2019-03-15T07:49:12.194Z,84.25
2019-03-15T07:50:13.960Z,84.45
2019-03-15T07:51:11.199Z,83.94
2019-03-15T07:52:11.163Z,84.35
2019-03-15T07:53:11.159Z,84.45
2019-03-15T07:54:11.140Z,84.52
2019-03-15T07:55:11.130Z,84.83
2019-03-15T07:56:11.147Z,84.42
2019-03-15T07:57:11.117Z,84.93
2019-03-15T07:58:11.100Z,84.42
2019-03-15T07:59:11.086Z,84.83
2019-03-15T08:00:11.091Z,86.54
2019-03-15T08:01:11.088Z,84.99
2019-03-15T08:02:11.068Z,84.79
2019-03-15T08:03:11.037Z,85.14
2019-03-15T08:04:16.987Z,85.03
2019-03-15T08:05:12.013Z,85.03
2019-03-15T08:06:11.052Z,85.14
2019-03-15T08:07:10.993Z,85.61
2019-03-15T08:08:10.982Z,85.65
2019-03-15T08:09:10.977Z,85.65
2019-03-15T08:10:10.961Z,86.16
2019-03-15T08:11:10.951Z,85.96
2019-03-15T08:12:10.963Z,85.89
2019-03-15T08:13:10.930Z,86.27
2019-03-15T08:14:10.921Z,86.99
2019-03-15T08:15:10.911Z,86.47
2019-03-15T08:16:10.896Z,87.30
2019-03-15T08:17:10.913Z,86.61
2019-03-15T08:18:10.876Z,87.09
2019-03-15T08:19:10.862Z,87.51
2019-03-15T08:20:10.854Z,87.92
2019-03-15T08:21:10.848Z,87.51
2019-03-15T08:22:10.860Z,87.40
2019-03-15T08:23:10.814Z,87.65
2019-03-15T08:24:10.811Z,87.85
2019-03-15T08:25:10.812Z,87.75
2019-03-15T08:26:10.785Z,88.53
2019-03-15T08:27:10.804Z,88.43
2019-03-15T08:28:10.766Z,88.23
2019-03-15T08:29:10.751Z,88.43
2019-03-15T08:30:10.740Z,88.26
2019-03-15T08:31:10.731Z,88.43
2019-03-15T08:32:10.824Z,88.64
2019-03-15T08:33:11.254Z,89.05
2019-03-15T08:34:10.691Z,88.74
2019-03-15T08:35:10.681Z,89.15
2019-03-15T08:36:10.673Z,88.95
2019-03-15T08:37:10.687Z,89.40
2019-03-15T08:38:10.659Z,88.64
2019-03-15T08:39:10.637Z,88.95
2019-03-15T08:40:10.622Z,88.99
2019-03-15T08:41:10.629Z,89.25
2019-03-15T08:42:10.641Z,89.29
2019-03-15T08:43:10.589Z,89.56
2019-03-15T08:44:10.577Z,89.67
2019-03-15T08:45:10.567Z,89.61
2019-03-15T08:46:10.555Z,89.67
2019-03-15T08:47:10.582Z,89.81
2019-03-15T08:48:10.544Z,89.61
2019-03-15T08:49:10.526Z,89.77
2019-03-15T08:50:10.539Z,90.22
2019-03-15T08:51:11.053Z,90.64
2019-03-15T08:52:10.493Z,90.28
2019-03-15T08:53:10.501Z,90.18
2019-03-15T08:54:10.465Z,90.28
2019-03-15T08:55:10.465Z,90.18
2019-03-15T08:56:10.448Z,90.59
2019-03-15T08:57:10.435Z,90.69
2019-03-15T08:58:15.326Z,90.64
2019-03-15T08:59:11.410Z,90.53
2019-03-15T09:00:10.399Z,90.64
2019-03-15T09:01:11.021Z,90.80
2019-03-15T09:02:10.379Z,90.80
2019-03-15T09:03:10.400Z,90.69
2019-03-15T09:04:10.373Z,91.11
2019-03-15T09:05:10.354Z,90.90
2019-03-15T09:06:10.352Z,91.00
2019-03-15T09:07:10.348Z,91.00
2019-03-15T09:08:10.411Z,91.21
2019-03-15T09:09:10.384Z,91.31
2019-03-15T09:10:21.693Z,92.24
2019-03-15T09:11:11.292Z,91.52
2019-03-15T09:12:10.273Z,91.42
2019-03-15T09:13:10.258Z,92.14
2019-03-15T09:14:10.266Z,92.14
2019-03-15T09:15:10.235Z,92.03
2019-03-15T09:16:10.220Z,92.14
2019-03-15T09:17:10.223Z,92.14
2019-03-15T09:18:10.209Z,92.65
2019-03-15T09:19:10.237Z,92.55
2019-03-15T09:20:10.182Z,92.44
2019-03-15T09:21:10.172Z,92.55
2019-03-15T09:22:10.169Z,92.76
2019-03-15T09:23:10.148Z,92.44
2019-03-15T09:24:10.159Z,93.37
2019-03-15T09:25:19.157Z,93.06
2019-03-15T09:26:11.115Z,92.92
2019-03-15T09:27:10.722Z,93.27
2019-03-15T09:28:10.105Z,92.96
2019-03-15T09:29:10.106Z,93.27
2019-03-15T09:30:22.672Z,93.79
2019-03-15T09:31:11.062Z,93.12
2019-03-15T09:32:10.045Z,93.48
2019-03-15T09:33:10.038Z,93.33
2019-03-15T09:34:10.035Z,93.64
2019-03-15T09:35:10.045Z,93.84
2019-03-15T09:36:10.012Z,93.64
2019-03-15T09:37:09.994Z,93.02
2019-03-15T09:38:10.646Z,92.92
2019-03-15T09:39:09.970Z,93.37
2019-03-15T09:40:09.986Z,93.64
2019-03-15T09:41:09.955Z,93.43
2019-03-15T09:42:09.941Z,93.54
2019-03-15T09:43:09.925Z,93.54
2019-03-15T09:44:09.916Z,93.54
2019-03-15T09:45:09.941Z,93.23
2019-03-15T09:46:09.888Z,93.95
2019-03-15T09:47:09.879Z,93.64
2019-03-15T09:48:09.883Z,93.95
2019-03-15T09:49:09.861Z,94.15
2019-03-15T09:50:21.135Z,94.05
2019-03-15T09:51:10.862Z,94.56
2019-03-15T09:52:09.828Z,94.46
2019-03-15T09:53:09.812Z,94.01
2019-03-15T09:54:09.801Z,94.87
2019-03-15T09:55:09.795Z,94.62
2019-03-15T09:56:09.829Z,94.73
2019-03-15T09:57:09.779Z,94.77
2019-03-15T09:58:09.757Z,94.83
2019-03-15T09:59:09.758Z,94.48
2019-03-15T10:00:09.736Z,94.37
2019-03-15T10:01:10.203Z,94.78
2019-03-15T10:02:09.716Z,93.86
2019-03-15T10:03:21.552Z,93.76
2019-03-15T10:04:10.686Z,93.96
2019-03-15T10:05:11.496Z,94.27
2019-03-15T10:06:14.835Z,93.86
2019-03-15T10:07:10.667Z,94.48
2019-03-15T10:08:09.654Z,94.74
2019-03-15T10:09:09.640Z,94.68
2019-03-15T10:10:13.797Z,94.84
2019-03-15T10:11:10.634Z,94.84
2019-03-15T10:12:09.601Z,94.12
2019-03-15T10:13:09.599Z,94.23
2019-03-15T10:14:09.579Z,94.33
2019-03-15T10:15:09.572Z,94.84
2019-03-15T10:16:09.581Z,94.64
2019-03-15T10:17:09.573Z,95.36
2019-03-15T10:18:09.546Z,95.46
2019-03-15T10:19:09.538Z,95.05
2019-03-15T10:20:12.380Z,95.25
2019-03-15T10:21:09.631Z,95.15
2019-03-15T10:22:09.518Z,95.42
2019-03-15T10:23:09.476Z,95.62
2019-03-15T10:24:09.470Z,95.67
2019-03-15T10:25:09.457Z,95.97
2019-03-15T10:26:09.472Z,95.67
2019-03-15T10:27:09.454Z,96.14
2019-03-15T10:28:09.420Z,95.83
2019-03-15T10:29:15.321Z,95.83
2019-03-15T10:30:10.398Z,96.03
2019-03-15T10:31:09.392Z,96.03
2019-03-15T10:32:09.553Z,95.83
2019-03-15T10:33:09.370Z,95.93
2019-03-15T10:34:09.364Z,95.62
2019-03-15T10:35:09.345Z,95.98
2019-03-15T10:36:09.334Z,95.98
2019-03-15T10:37:09.351Z,96.30
2019-03-15T10:38:09.308Z,96.19
2019-03-15T10:39:09.298Z,96.60
2019-03-15T10:40:09.298Z,96.19
2019-03-15T10:41:09.277Z,96.30
2019-03-15T10:42:09.293Z,96.19
2019-03-15T10:43:09.251Z,96.40
2019-03-15T10:44:09.240Z,96.50
2019-03-15T10:45:09.230Z,96.15
2019-03-15T10:46:09.216Z,96.35
2019-03-15T10:47:09.245Z,96.35
2019-03-15T10:48:09.225Z,96.35
2019-03-15T10:49:09.199Z,96.62
2019-03-15T10:50:09.173Z,96.41
2019-03-15T10:51:09.162Z,96.00
2019-03-15T10:52:09.184Z,95.79
2019-03-15T10:53:09.166Z,95.90
2019-03-15T10:54:09.137Z,95.79
2019-03-15T10:55:09.120Z,96.41
2019-03-15T10:56:09.126Z,96.26
2019-03-15T10:57:09.104Z,96.00
2019-03-15T10:58:09.131Z,95.69
2019-03-15T10:59:09.072Z,95.95
2019-03-15T11:00:09.069Z,95.79
2019-03-15T11:01:09.058Z,95.86
2019-03-15T11:02:09.069Z,95.79
2019-03-15T11:03:09.051Z,95.34
2019-03-15T11:04:09.046Z,96.06
2019-03-15T11:05:09.012Z,95.70
2019-03-15T11:06:09.017Z,95.29
2019-03-15T11:07:08.983Z,95.20
2019-03-15T11:08:08.994Z,95.15
2019-03-15T11:09:08.981Z,95.20
2019-03-15T11:10:08.955Z,95.40
2019-03-15T11:11:08.937Z,95.40
2019-03-15T11:12:08.947Z,95.76
2019-03-15T11:13:08.969Z,95.91
2019-03-15T11:14:08.915Z,95.81
2019-03-15T11:15:08.892Z,95.97
2019-03-15T11:16:08.883Z,95.36
2019-03-15T11:17:08.878Z,95.46
2019-03-15T11:18:08.891Z,95.36
2019-03-15T11:19:08.853Z,94.70
2019-03-15T11:20:08.837Z,94.90
2019-03-15T11:21:08.838Z,94.90
2019-03-15T11:22:08.815Z,94.65
2019-03-15T11:23:08.833Z,94.39
2019-03-15T11:24:08.818Z,94.24
2019-03-15T11:25:08.780Z,93.32
2019-03-15T11:26:13.490Z,92.97
2019-03-15T11:27:09.763Z,92.77
2019-03-15T11:28:08.751Z,92.46
2019-03-15T11:29:08.771Z,92.36
2019-03-15T11:30:08.745Z,92.46
2019-03-15T11:31:08.719Z,92.25
2019-03-15T11:32:08.704Z,92.66
2019-03-15T11:33:08.702Z,92.87
2019-03-15T11:34:08.707Z,91.80
2019-03-15T11:35:08.824Z,91.60
2019-03-15T11:36:08.659Z,91.19
2019-03-15T11:37:08.654Z,91.50
2019-03-15T11:38:08.639Z,90.84
2019-03-15T11:39:08.633Z,90.99
2019-03-15T11:40:08.638Z,90.23
2019-03-15T11:41:08.610Z,90.33
2019-03-15T11:42:08.588Z,90.02
2019-03-15T11:43:08.582Z,89.92
2019-03-15T11:44:08.576Z,89.92
2019-03-15T11:45:08.601Z,89.51
2019-03-15T11:46:08.585Z,89.67
2019-03-15T11:47:08.599Z,88.65
2019-03-15T11:48:09.157Z,88.20
2019-03-15T11:49:08.509Z,88.35
2019-03-15T11:50:08.533Z,87.90
2019-03-15T11:51:08.492Z,87.38
2019-03-15T11:52:08.478Z,87.45
2019-03-15T11:53:08.465Z,87.45
2019-03-15T11:54:08.494Z,86.59
2019-03-15T11:55:08.474Z,85.92
2019-03-15T11:56:08.440Z,85.02
2019-03-15T11:57:08.431Z,84.47
2019-03-15T11:58:08.408Z,84.06
2019-03-15T11:59:08.394Z,83.86
2019-03-15T12:00:08.440Z,82.90
2019-03-15T12:01:08.382Z,82.90
2019-03-15T12:02:10.676Z,83.21
2019-03-15T12:03:08.376Z,83.11
2019-03-15T12:04:08.347Z,83.11
2019-03-15T12:05:08.344Z,83.01
2019-03-15T12:06:08.345Z,82.54
2019-03-15T12:07:10.414Z,83.01
2019-03-15T12:08:08.299Z,82.80
2019-03-15T12:09:08.294Z,82.60
2019-03-15T12:10:08.277Z,82.09
2019-03-15T12:11:08.296Z,81.62
2019-03-15T12:12:08.263Z,82.90
2019-03-15T12:13:08.238Z,82.40
2019-03-15T12:14:08.238Z,82.80
2019-03-15T12:15:08.218Z,82.70
2019-03-15T12:16:08.243Z,82.29
2019-03-15T12:17:08.198Z,81.41
2019-03-15T12:18:08.782Z,82.70
2019-03-15T12:19:08.184Z,81.99
2019-03-15T12:20:08.166Z,81.48
2019-03-15T12:21:08.186Z,81.82
2019-03-15T12:22:08.155Z,81.93
2019-03-15T12:23:08.126Z,81.48
2019-03-15T12:24:08.118Z,81.68
2019-03-15T12:25:08.111Z,82.64
2019-03-15T12:26:10.115Z,82.80
2019-03-15T12:27:08.083Z,82.64
2019-03-15T12:28:08.079Z,82.43
2019-03-15T12:29:08.063Z,83.15
2019-03-15T12:30:08.053Z,83.96
2019-03-15T12:31:08.074Z,83.59
2019-03-15T12:32:08.025Z,84.31
2019-03-15T12:33:08.021Z,84.61
2019-03-15T12:34:08.013Z,84.96
2019-03-15T12:35:07.993Z,85.06
2019-03-15T12:36:08.016Z,85.33
2019-03-15T12:37:07.977Z,84.72
2019-03-15T12:38:07.960Z,85.16
2019-03-15T12:39:07.967Z,84.55
2019-03-15T12:40:07.949Z,84.45
2019-03-15T12:41:07.974Z,84.66
2019-03-15T12:42:07.944Z,85.27
2019-03-15T12:43:07.919Z,85.37
2019-03-15T12:44:10.456Z,85.27
2019-03-15T12:45:07.883Z,84.96
2019-03-15T12:46:07.886Z,84.86
2019-03-15T12:47:07.894Z,85.06
2019-03-15T12:48:07.857Z,85.37
2019-03-15T12:49:07.918Z,84.96
2019-03-15T12:50:07.831Z,85.13
2019-03-15T12:51:07.817Z,84.86
2019-03-15T12:52:07.862Z,85.88
2019-03-15T12:53:07.801Z,85.16
2019-03-15T12:54:07.804Z,84.92
2019-03-15T12:55:07.772Z,85.37